Terminal Aerodrome Forecast
Issued by NWS Bismarck, ND

Home | Current Version | Previous Version | Text Only | Print | Product List | Glossary Off
Versions: 1 2 3 4 5 6 7 8 9 10 11 12 13 14 15 16 17 18 19

362
FTUS43 KBIS 110522
TAFBIS
TAF
KBIS 110522Z 1106/1206 VRB03KT P6SM OVC015
     FM111200 12004KT 4SM -SN BR OVC010
     FM111400 13004KT 2SM -SN BR OVC007
     FM112200 05006KT 5SM -SN BR OVC015
     FM120000 03007KT P6SM VCSH OVC025
     FM120500 02007KT P6SM OVC035=

USA.gov is the U.S. government's official web portal to all federal, state and local government web resources and services.